createdAt,value
2023-07-22T00:00:35.744Z,10.00
2023-07-22T00:03:40.320Z,10.80
2023-07-22T00:06:43.525Z,12.00
2023-07-22T00:09:46.680Z,11.00
2023-07-22T00:12:49.792Z,9.60
2023-07-22T00:15:54.202Z,11.00
2023-07-22T00:18:59.044Z,11.00
2023-07-22T00:22:02.613Z,12.00
2023-07-22T00:25:06.430Z,11.00
2023-07-22T00:28:09.680Z,11.00
2023-07-22T00:31:13.074Z,12.80
2023-07-22T00:34:17.750Z,11.25
2023-07-22T00:37:20.869Z,11.00
2023-07-22T00:40:25.138Z,13.00
2023-07-22T00:43:28.260Z,12.00
2023-07-22T00:46:31.430Z,11.40
2023-07-22T00:49:37.105Z,12.00
2023-07-22T00:52:41.039Z,12.00
2023-07-22T00:55:44.657Z,13.00
2023-07-22T00:58:47.969Z,12.00
2023-07-22T01:01:51.690Z,13.00
2023-07-22T01:04:56.355Z,13.80
2023-07-22T01:07:59.823Z,11.60
2023-07-22T01:11:03.132Z,14.00
2023-07-22T01:14:06.349Z,12.80
2023-07-22T01:17:11.694Z,11.40
2023-07-22T01:20:19.916Z,10.00
2023-07-22T01:23:24.418Z,14.00
2023-07-22T01:26:28.299Z,13.00
2023-07-22T01:29:31.732Z,12.00
2023-07-22T01:32:34.886Z,10.00
2023-07-22T01:35:38.108Z,11.00
2023-07-22T01:38:42.605Z,10.60
2023-07-22T01:41:45.966Z,12.40
2023-07-22T01:44:49.368Z,10.75
2023-07-22T01:47:52.914Z,9.00
2023-07-22T01:50:56.202Z,11.80
2023-07-22T01:54:00.939Z,10.00
2023-07-22T01:57:04.234Z,10.00
2023-07-22T02:00:09.366Z,9.20
2023-07-22T02:03:18.961Z,11.00
2023-07-22T02:06:22.489Z,10.00
2023-07-22T02:09:26.970Z,9.33
2023-07-22T02:12:30.106Z,10.40
2023-07-22T02:15:33.387Z,9.50
2023-07-22T02:18:36.478Z,11.00
2023-07-22T02:21:39.682Z,11.00
2023-07-22T02:24:44.206Z,9.20
2023-07-22T02:27:47.532Z,7.00
2023-07-22T02:30:51.362Z,7.00
2023-07-22T02:33:54.661Z,8.00
2023-07-22T02:36:57.890Z,8.00
2023-07-22T02:40:02.421Z,9.00
2023-07-22T02:43:06.753Z,8.00
2023-07-22T02:46:10.287Z,8.00
2023-07-22T02:49:13.526Z,7.00
2023-07-22T02:52:16.994Z,7.00
2023-07-22T02:55:22.763Z,8.00
2023-07-22T02:58:26.245Z,8.60
2023-07-22T03:01:30.716Z,8.00
2023-07-22T03:04:34.495Z,9.00
2023-07-22T03:07:37.762Z,10.00
2023-07-22T03:10:45.063Z,7.00
2023-07-22T03:13:49.015Z,6.60
2023-07-22T03:16:52.280Z,7.00
2023-07-22T03:19:55.463Z,7.00
2023-07-22T03:22:58.570Z,9.00
2023-07-22T03:26:03.696Z,7.00
2023-07-22T03:29:07.381Z,8.60
2023-07-22T03:32:11.603Z,8.40
2023-07-22T03:35:14.821Z,8.00
2023-07-22T03:38:18.122Z,9.60
2023-07-22T03:41:22.676Z,8.00
2023-07-22T03:44:27.200Z,6.50
2023-07-22T03:47:30.781Z,4.75
2023-07-22T03:50:33.943Z,7.40
2023-07-22T03:53:37.159Z,7.40
2023-07-22T03:56:43.498Z,7.00
2023-07-22T03:59:46.651Z,7.00
2023-07-22T04:02:50.002Z,5.80
2023-07-22T04:05:56.692Z,7.00
2023-07-22T04:09:01.529Z,6.60
2023-07-22T04:12:06.924Z,5.00
2023-07-22T04:15:10.748Z,6.60
2023-07-22T04:18:13.873Z,6.00
2023-07-22T04:21:17.143Z,4.00
2023-07-22T04:24:20.424Z,5.00
2023-07-22T04:27:25.078Z,5.00
2023-07-22T04:30:28.402Z,6.20
2023-07-22T04:33:31.688Z,7.00
2023-07-22T04:36:34.948Z,8.00
2023-07-22T04:39:39.372Z,9.60
2023-07-22T04:42:43.884Z,8.00
2023-07-22T04:45:49.063Z,6.00
2023-07-22T04:48:52.363Z,8.00
2023-07-22T04:51:55.867Z,6.00
2023-07-22T04:54:58.931Z,8.00
2023-07-22T04:58:04.361Z,8.00
2023-07-22T05:01:07.615Z,9.00
2023-07-22T05:04:10.842Z,12.40
2023-07-22T05:07:13.974Z,11.00
2023-07-22T05:10:18.241Z,9.00
2023-07-22T05:13:22.890Z,10.80
2023-07-22T05:16:26.517Z,11.00
2023-07-22T05:19:29.968Z,11.00
2023-07-22T05:22:35.847Z,11.00
2023-07-22T05:25:39.340Z,12.00
2023-07-22T05:28:43.928Z,10.00
2023-07-22T05:31:47.418Z,10.60
2023-07-22T05:34:50.568Z,10.00
2023-07-22T05:37:53.707Z,10.00
2023-07-22T05:40:57.396Z,11.00
2023-07-22T05:44:01.846Z,13.00
2023-07-22T05:47:05.129Z,12.00
2023-07-22T05:50:09.532Z,12.20
2023-07-22T05:53:12.968Z,13.50
2023-07-22T05:56:16.149Z,11.40
2023-07-22T05:59:22.306Z,12.00
2023-07-22T06:02:25.637Z,12.75
2023-07-22T06:05:28.863Z,15.00
2023-07-22T06:08:32.006Z,12.50
2023-07-22T06:11:35.208Z,11.40
2023-07-22T06:14:39.644Z,12.00
2023-07-22T06:17:42.819Z,14.00
2023-07-22T06:20:46.156Z,13.60
2023-07-22T06:23:49.280Z,10.00
2023-07-22T06:26:52.733Z,13.00
2023-07-22T06:29:57.759Z,13.00
2023-07-22T06:33:00.929Z,13.00
2023-07-22T06:36:04.429Z,14.00
2023-07-22T06:39:07.589Z,15.00
2023-07-22T06:42:10.689Z,15.00
2023-07-22T06:45:15.293Z,14.00
2023-07-22T06:48:18.517Z,12.20
2023-07-22T06:51:22.016Z,14.00
2023-07-22T06:54:25.274Z,15.00
2023-07-22T06:57:28.399Z,14.00
2023-07-22T07:00:32.891Z,15.00
2023-07-22T07:03:37.286Z,13.80
2023-07-22T07:06:40.493Z,13.00
2023-07-22T07:09:43.712Z,13.00
2023-07-22T07:12:46.885Z,15.00
2023-07-22T07:15:51.553Z,15.00
2023-07-22T07:18:56.154Z,13.25
2023-07-22T07:21:59.689Z,11.80
2023-07-22T07:25:03.450Z,13.00
2023-07-22T07:28:07.007Z,11.60
2023-07-22T07:31:11.694Z,12.50
2023-07-22T07:34:15.438Z,11.00
2023-07-22T07:37:18.651Z,10.40
2023-07-22T07:40:21.802Z,9.75
2023-07-22T07:43:25.051Z,10.00
2023-07-22T07:46:31.306Z,8.80
2023-07-22T07:49:35.615Z,8.00
2023-07-22T07:52:40.185Z,9.20
2023-07-22T07:55:43.229Z,10.00
2023-07-22T07:58:47.274Z,9.00
2023-07-22T08:01:51.722Z,9.00
2023-07-22T08:04:54.857Z,8.00
2023-07-22T08:07:57.994Z,7.75
2023-07-22T08:11:02.302Z,7.00
2023-07-22T08:14:06.483Z,8.00
2023-07-22T08:17:11.052Z,5.80
2023-07-22T08:20:14.202Z,7.60
2023-07-22T08:23:17.565Z,6.80
2023-07-22T08:26:22.255Z,5.20
2023-07-22T08:29:25.419Z,7.00
2023-07-22T08:32:29.939Z,7.20
2023-07-22T08:35:34.558Z,8.00
2023-07-22T08:38:37.927Z,7.25
2023-07-22T08:41:46.347Z,9.00
2023-07-22T08:44:53.193Z,6.40
2023-07-22T08:48:00.905Z,6.40
2023-07-22T08:51:06.456Z,7.00
2023-07-22T08:54:12.257Z,8.00
2023-07-22T08:57:16.119Z,8.00
2023-07-22T09:00:19.850Z,7.00
2023-07-22T09:03:24.735Z,8.00
2023-07-22T09:06:28.078Z,6.80
2023-07-22T09:09:32.658Z,7.00
2023-07-22T09:12:41.089Z,6.00
2023-07-22T09:15:44.902Z,6.20
2023-07-22T09:18:49.510Z,7.00
2023-07-22T09:21:52.832Z,6.75
2023-07-22T09:25:14.003Z,6.50
2023-07-22T09:28:17.176Z,6.40
2023-07-22T09:31:20.586Z,4.75
2023-07-22T09:34:26.605Z,5.00
2023-07-22T09:37:38.485Z,6.00
2023-07-22T09:40:43.052Z,7.00
2023-07-22T09:43:49.518Z,5.33
2023-07-22T09:46:53.080Z,5.00
2023-07-22T09:49:57.677Z,7.40
2023-07-22T09:53:02.501Z,6.20
2023-07-22T09:56:06.522Z,5.00
2023-07-22T09:59:09.844Z,7.40
2023-07-22T10:02:13.635Z,6.00
2023-07-22T10:05:20.030Z,7.00
2023-07-22T10:08:25.930Z,6.40
2023-07-22T10:11:30.720Z,6.00
2023-07-22T10:14:37.075Z,7.00
2023-07-22T10:17:42.302Z,6.75
2023-07-22T10:20:47.426Z,7.40
2023-07-22T10:23:50.729Z,7.00
2023-07-22T10:26:55.083Z,4.00
2023-07-22T10:29:58.571Z,6.40
2023-07-22T10:33:01.823Z,5.50
2023-07-22T10:36:08.517Z,5.40
2023-07-22T10:39:11.776Z,7.50
2023-07-22T10:42:27.242Z,4.00
2023-07-22T10:45:32.824Z,5.80
2023-07-22T10:48:39.096Z,5.00
2023-07-22T10:51:49.199Z,6.25
2023-07-22T10:54:52.390Z,5.00
2023-07-22T10:57:57.336Z,5.00
2023-07-22T11:01:26.393Z,4.40
2023-07-22T11:04:51.060Z,6.40
2023-07-22T11:08:07.884Z,4.00
2023-07-22T11:11:13.204Z,5.00
2023-07-22T11:14:22.615Z,5.75
2023-07-22T11:17:31.977Z,6.00
2023-07-22T11:20:36.044Z,3.40
2023-07-22T11:23:40.801Z,5.40
2023-07-22T11:26:46.524Z,5.40
2023-07-22T11:29:50.696Z,5.75
2023-07-22T11:32:54.289Z,6.00
2023-07-22T11:35:58.255Z,6.00
2023-07-22T11:39:08.815Z,4.00
2023-07-22T11:42:13.237Z,5.00
2023-07-22T11:45:17.018Z,4.00
2023-07-22T11:48:20.827Z,4.00
2023-07-22T11:51:26.207Z,6.00
2023-07-22T11:54:31.791Z,3.00
2023-07-22T11:57:34.910Z,5.00
2023-07-22T12:00:38.119Z,6.00
2023-07-22T12:03:42.034Z,5.60
2023-07-22T12:06:45.229Z,6.00
2023-07-22T12:09:51.451Z,6.00
2023-07-22T12:12:55.262Z,6.00
2023-07-22T12:16:02.428Z,4.00
2023-07-22T12:19:06.465Z,6.60
2023-07-22T12:22:11.539Z,4.75
2023-07-22T12:25:16.279Z,4.40
2023-07-22T12:28:19.505Z,6.00
2023-07-22T12:31:22.822Z,6.00
2023-07-22T12:34:26.083Z,5.00
2023-07-22T12:37:29.746Z,6.00
2023-07-22T12:40:35.216Z,6.00
2023-07-22T12:43:38.835Z,6.00
2023-07-22T12:46:41.962Z,4.40
2023-07-22T12:49:45.094Z,4.00
2023-07-22T12:52:48.273Z,4.50
2023-07-22T12:55:52.731Z,5.00
2023-07-22T12:58:55.915Z,6.00
2023-07-22T13:01:59.574Z,5.00
2023-07-22T13:05:02.713Z,4.00
2023-07-22T13:08:06.273Z,4.00
2023-07-22T13:11:10.820Z,4.00
2023-07-22T13:14:14.324Z,5.25
2023-07-22T13:17:17.646Z,4.00
2023-07-22T13:20:20.895Z,4.60
2023-07-22T13:23:24.232Z,5.00
2023-07-22T13:26:28.821Z,6.25
2023-07-22T13:29:31.992Z,7.00
2023-07-22T13:32:35.933Z,6.00
2023-07-22T13:35:40.547Z,4.75
2023-07-22T13:38:43.693Z,5.80
2023-07-22T13:41:48.634Z,4.00
2023-07-22T13:44:52.694Z,3.00
2023-07-22T13:47:56.871Z,5.00
2023-07-22T13:51:00.300Z,4.00
2023-07-22T13:54:03.441Z,4.00
2023-07-22T13:57:09.095Z,5.00
2023-07-22T14:00:13.170Z,4.00
2023-07-22T14:03:16.581Z,4.00
2023-07-22T14:06:19.755Z,4.00
2023-07-22T14:09:23.182Z,4.00
2023-07-22T14:12:33.177Z,4.00
2023-07-22T14:15:37.604Z,4.00
2023-07-22T14:18:40.721Z,5.25
2023-07-22T14:21:43.879Z,6.00
2023-07-22T14:24:47.294Z,4.00
2023-07-22T14:27:51.964Z,4.00
2023-07-22T14:30:55.122Z,4.00
2023-07-22T14:33:58.229Z,5.00
2023-07-22T14:37:01.374Z,4.00
2023-07-22T14:40:06.047Z,3.00
2023-07-22T14:43:10.630Z,3.67
2023-07-22T14:46:13.824Z,3.25
2023-07-22T14:49:17.562Z,4.00
2023-07-22T14:52:20.707Z,5.00
2023-07-22T14:55:24.358Z,2.00
2023-07-22T14:58:28.926Z,3.75
2023-07-22T15:01:40.722Z,4.00
2023-07-22T15:04:44.269Z,4.00
2023-07-22T15:07:47.396Z,5.00
2023-07-22T15:10:51.066Z,3.80
2023-07-22T15:13:55.613Z,4.00
2023-07-22T15:16:58.810Z,4.00
2023-07-22T15:20:01.970Z,4.20
2023-07-22T15:23:05.328Z,5.00
2023-07-22T15:26:08.488Z,5.00
2023-07-22T15:29:12.942Z,5.00
2023-07-22T15:32:16.847Z,6.00
2023-07-22T15:35:22.095Z,6.00
2023-07-22T15:38:28.012Z,5.00
2023-07-22T15:41:31.141Z,8.00
2023-07-22T15:44:35.736Z,6.00
2023-07-22T15:47:38.930Z,5.60
2023-07-22T15:50:42.142Z,6.00
2023-07-22T15:53:45.328Z,5.80
2023-07-22T15:56:48.707Z,7.00
2023-07-22T15:59:53.175Z,7.00
2023-07-22T16:02:56.399Z,6.00
2023-07-22T16:05:59.587Z,7.80
2023-07-22T16:09:02.725Z,5.40
2023-07-22T16:12:08.071Z,6.00
2023-07-22T16:15:12.824Z,5.00
2023-07-22T16:18:16.026Z,6.20
2023-07-22T16:21:19.209Z,6.00
2023-07-22T16:24:22.505Z,5.00
2023-07-22T16:27:25.696Z,6.40
2023-07-22T16:30:30.165Z,8.00
2023-07-22T16:33:33.279Z,8.00
2023-07-22T16:36:36.972Z,8.50
2023-07-22T16:39:40.187Z,8.60
2023-07-22T16:42:43.329Z,8.00
2023-07-22T16:45:48.212Z,11.80
2023-07-22T16:48:51.354Z,10.00
2023-07-22T16:51:54.505Z,11.00
2023-07-22T16:54:57.685Z,9.80
2023-07-22T16:58:00.834Z,10.40
2023-07-22T17:01:05.344Z,11.50
2023-07-22T17:04:09.336Z,9.40
2023-07-22T17:07:12.710Z,10.00
2023-07-22T17:10:16.232Z,9.00
2023-07-22T17:13:19.730Z,10.00
2023-07-22T17:16:24.585Z,10.00
2023-07-22T17:19:28.084Z,10.00
2023-07-22T17:22:31.250Z,9.00
2023-07-22T17:25:34.484Z,7.00
2023-07-22T17:28:42.662Z,7.75
2023-07-22T17:31:47.311Z,7.00
2023-07-22T17:34:51.424Z,8.00
2023-07-22T17:37:54.551Z,11.60
2023-07-22T17:40:57.942Z,6.00
2023-07-22T17:44:02.119Z,7.00
2023-07-22T17:47:07.022Z,8.80
2023-07-22T17:50:11.189Z,8.00
2023-07-22T17:53:14.632Z,6.00
2023-07-22T17:56:18.142Z,7.00
2023-07-22T17:59:21.641Z,4.00
2023-07-22T18:02:26.548Z,6.40
2023-07-22T18:05:31.826Z,6.80
2023-07-22T18:08:35.116Z,12.80
2023-07-22T18:11:38.632Z,18.00
2023-07-22T18:14:42.188Z,112.00
2023-07-22T18:17:47.054Z,78.25
2023-07-22T18:20:50.349Z,36.80
2023-07-22T18:23:53.934Z,15.00
2023-07-22T18:26:57.024Z,10.40
2023-07-22T18:30:00.841Z,10.00
2023-07-22T18:33:05.654Z,8.40
2023-07-22T18:36:09.309Z,10.00
2023-07-22T18:39:12.411Z,16.25
2023-07-22T18:42:15.757Z,11.00
2023-07-22T18:45:18.898Z,11.00
2023-07-22T18:48:23.485Z,13.00
2023-07-22T18:51:28.495Z,11.20
2023-07-22T18:54:32.065Z,11.80
2023-07-22T18:57:35.233Z,12.00
2023-07-22T19:00:38.393Z,10.00
2023-07-22T19:03:42.909Z,13.00
2023-07-22T19:06:47.013Z,12.60
2023-07-22T19:09:50.126Z,15.33
2023-07-22T19:12:53.636Z,14.00
2023-07-22T19:15:57.369Z,13.40
2023-07-22T19:19:02.006Z,12.00
2023-07-22T19:22:05.614Z,14.20
2023-07-22T19:25:10.391Z,13.60
2023-07-22T19:28:32.912Z,14.40
2023-07-22T19:31:36.119Z,13.50
2023-07-22T19:34:40.640Z,12.00
2023-07-22T19:37:43.804Z,13.25
2023-07-22T19:40:46.875Z,13.00
2023-07-22T19:43:50.296Z,14.40
2023-07-22T19:46:53.415Z,13.00
2023-07-22T19:49:57.977Z,11.80
2023-07-22T19:53:01.137Z,12.00
2023-07-22T19:56:09.291Z,13.00
2023-07-22T19:59:13.285Z,13.00
2023-07-22T20:02:17.394Z,14.40
2023-07-22T20:05:21.968Z,13.00
2023-07-22T20:08:25.666Z,12.00
2023-07-22T20:11:28.989Z,13.60
2023-07-22T20:14:32.351Z,11.00
2023-07-22T20:17:35.553Z,8.60
2023-07-22T20:20:40.072Z,8.00
2023-07-22T20:23:45.383Z,8.00
2023-07-22T20:26:48.826Z,9.00
2023-07-22T20:29:55.395Z,8.20
2023-07-22T20:32:59.756Z,9.00
2023-07-22T20:36:05.935Z,9.00
2023-07-22T20:39:09.125Z,7.00
2023-07-22T20:42:12.239Z,10.60
2023-07-22T20:45:15.383Z,10.00
2023-07-22T20:48:18.435Z,9.60
2023-07-22T20:51:22.986Z,9.00
2023-07-22T20:54:26.141Z,9.75
2023-07-22T20:57:29.511Z,9.60
2023-07-22T21:00:32.668Z,10.00
2023-07-22T21:03:35.998Z,11.00
2023-07-22T21:06:40.663Z,9.75
2023-07-22T21:09:43.850Z,10.75
2023-07-22T21:12:47.788Z,10.00
2023-07-22T21:15:51.149Z,8.00
2023-07-22T21:18:54.337Z,10.00
2023-07-22T21:22:00.388Z,10.80
2023-07-22T21:25:04.195Z,10.00
2023-07-22T21:28:07.874Z,9.00
2023-07-22T21:31:11.091Z,8.00
2023-07-22T21:34:15.796Z,8.75
2023-07-22T21:37:20.654Z,10.00
2023-07-22T21:40:23.784Z,10.00
2023-07-22T21:43:27.092Z,11.00
2023-07-22T21:46:30.553Z,11.75
2023-07-22T21:49:33.670Z,10.20
2023-07-22T21:52:38.601Z,9.80
2023-07-22T21:55:41.721Z,10.00
2023-07-22T21:58:44.834Z,10.67
2023-07-22T22:01:47.966Z,10.80
2023-07-22T22:04:51.125Z,12.60
2023-07-22T22:07:55.619Z,12.80
2023-07-22T22:10:58.738Z,12.00
2023-07-22T22:14:01.944Z,11.00
2023-07-22T22:17:05.459Z,10.00
2023-07-22T22:20:09.985Z,13.00
2023-07-22T22:23:16.367Z,11.00
2023-07-22T22:26:19.600Z,13.00
2023-07-22T22:29:22.740Z,10.00
2023-07-22T22:32:26.355Z,13.40
2023-07-22T22:35:30.409Z,12.00
2023-07-22T22:38:34.988Z,9.00
2023-07-22T22:41:38.625Z,14.60
2023-07-22T22:44:41.822Z,13.25
2023-07-22T22:47:45.020Z,11.80
2023-07-22T22:50:48.420Z,9.20
2023-07-22T22:53:53.121Z,12.00
2023-07-22T22:56:56.318Z,10.00
2023-07-22T22:59:59.595Z,10.80
2023-07-22T23:03:02.811Z,12.00
2023-07-22T23:06:13.155Z,12.00
2023-07-22T23:09:17.670Z,12.00
2023-07-22T23:12:20.834Z,11.00
2023-07-22T23:15:24.078Z,11.00
2023-07-22T23:18:27.243Z,13.00
2023-07-22T23:21:30.749Z,12.75
2023-07-22T23:24:35.419Z,11.00
2023-07-22T23:27:40.218Z,13.00
2023-07-22T23:30:43.699Z,10.80
2023-07-22T23:33:47.001Z,11.20
2023-07-22T23:36:50.270Z,13.00
2023-07-22T23:39:54.709Z,14.00
2023-07-22T23:42:57.902Z,12.75
2023-07-22T23:46:01.113Z,13.60
2023-07-22T23:49:04.297Z,16.00
2023-07-22T23:52:07.922Z,17.20
2023-07-22T23:55:12.796Z,14.40
2023-07-22T23:58:15.995Z,14.40
